Current Weather

Rochelle Muni/Koritz Fld

Rochelle, Illinois (KRPJ)

Report from: Friday, February 3, 2023 10:55 PM CST
Current time: Friday, February 3, 2023 11:35 PM CST

Nearby weather
Weather history
Weather forecast

Temperature-14.0°C (6.8°F)
Wind chill-21.0°C (-5.9°F)
Dew point-18.3°C (-0.9°F)
Winds 7 kts (3.6 m/s, 8.1 mph) South-Southeast (160°)
Visibility10 mi. (16.1 km)
Clouds Ceiling: Overcast 4,200 ft. (1,280 m)
Altimeter30.46 in.Hg (1031 mB)
Relative humidity70 %
Density altitude-4,259 ft. (-1,298 m)
Remarks Fully automated report
Automated weather observing station with precipitation discriminator
Lightning detection system not operating
Flight conditions Visual Meteorological Conditions
Raw dataKRPJ 040455Z AUTO 16007KT 10SM OVC042 M14/M18 A3046 RMK AO2 T11401183 TSNO
An unhandled exception has occurred. See browser dev tools for details. Reload 🗙